Record high temperature 17.6°C Record low temperature 11.0°C Record high gust 26.0 mph Record high average 17.0 mph Record daily rain 0.0 mm Record low windchill 11.0°C Record high barometer 1035.9 hPa Record low barometer 1026.7 hPa
Daily high pressure 1035.9 hPa Daily low pressure 1035.4 hPa Daily low windchill 14.2°C Daily high heat index 14.6°C Daily high gust speed 11.5 mph WNW Daily high average speed 8.3 mph NW
Seaford Weather Data
LAST READING AT TIME: 1:30 AM DATE: May 25 2020, time of next update: 2:00 am
Current WeatherNight time/Dry Current Temperature 14.2°C (57.6°F), Apparent temp 12.6°C
Maximum Temperature (since midnight)14.6°C at: 12:00 AM Minimum Temperature (since midnight)14.2°C at: 1:03 AM
Average windspeed (ten minute)6.1 mph Wind Direction (ten minute)WNW (290°)
Windchill Temperature 14.2°C Maximum Gust (last hour)11.0 mph at: 12:40 AM
Maximum Gust (since midnight)11.5 mph at: 12:40 AM Maximum 1 minute average (since midnight)8.3 mph at: 1:22 AM
Rainfall (last hour)0.0 mm Rainfall (since midnight)0.0 mm (0.00 in.)---
Rainfall This month 1.0 mm (0.04 in.) Rainfall To date this year 372.8 mm (14.68 in.)
Maximum rain per minute (last hour)0.0 mm/min Maximum rain per hour (last 6 hours)0.0 mm/hour
Yesterdays rainfall 0.0 mm DewPoint 9.6°C (Wet Bulb :11.8°C )
Humidity 74 %, Humidex 15.3°C Barometer corrected to msl1035.8 hPa
Pressure change +0.3 hPa (last hour) Trend (last hour)STEADY
Pressure change (last 12 hours)+2.3 hPa Pressure change (last 6 hours)+1.7 hPa
Current 00:00 hours of sunshine today, current sky: Night time/Dry
Sunshine hours for the year: 15:03 hrs Sunshine hours for the month: 15:03 hrs
Current evapotranspiration rate 0.0 mm per day. Yesterday's reading NA



Weather report/warning/Metars

Shoreham Airport, United Kingdom (EGKA) 50-50N 000-17W 0M
May 24, 2020 - 12:50 PM EDT / 2020.05.24 1650 UTC
Wind: from the SW (220 degrees) at 13 MPH (11 KT):0
Visibility: greater than 7 mile(s):0
Temperature: 64 F (18 C)
Dew Point: 53 F (12 C)
Relative Humidity: 67%
Pressure (altimeter): 30.45 in. Hg (1031 hPa)
ob: EGKA 241650Z 22011KT CAVOK 18/12 Q1031
cycle: 17
Yeovilton, United Kingdom (EGDY) 51-00N 002-38W 0M
May 24, 2020 - 07:50 PM EDT / 2020.05.24 2350 UTC
Wind: from the SSE (150 degrees) at 3 MPH (3 KT):0
Visibility: greater than 7 mile(s):0
Temperature: 44 F (7 C)
Dew Point: 42 F (6 C)
Relative Humidity: 93%
Pressure (altimeter): 30.56 in. Hg (1035 hPa)
ob: EGDY 242350Z AUTO 15003KT 9999 NCD 07/06 Q1035
cycle: 0
Luton Airport , United Kingdom (EGGW) 51-52N 000-22W
May 24, 2020 - 07:50 PM EDT / 2020.05.24 2350 UTC
Wind: from the W (280 degrees) at 9 MPH (8 KT):0
Visibility: greater than 7 mile(s):0
Temperature: 55 F (13 C)
Dew Point: 46 F (8 C)
Relative Humidity: 71%
Pressure (altimeter): 30.53 in. Hg (1034 hPa)
ob: EGGW 242350Z AUTO 28008KT 9999 NCD 13/08 Q1034
cycle: 0
Bournemouth Airport, United Kingdom (EGHH) 50-47N 001-50W 0M
May 24, 2020 - 09:50 AM EDT / 2020.05.24 1350 UTC
Wind: from the NW (320 degrees) at 16 MPH (14 KT):0
Visibility: greater than 7 mile(s):0
Sky conditions: mostly clear
Temperature: 69 F (21 C)
Dew Point: 44 F (7 C)
Relative Humidity: 40%
Pressure (altimeter): 30.47 in. Hg (1032 hPa)
ob: EGHH 241350Z 32014KT 9999 FEW046 21/07 Q1032
cycle: 14
Guernsey Airport, United Kingdom (EGJB) 49-26N 002-36W 0M
May 24, 2020 - 07:50 PM EDT / 2020.05.24 2350 UTC
Wind: from the NNW (340 degrees) at 5 MPH (4 KT):0
Visibility: greater than 7 mile(s):0
Temperature: 50 F (10 C)
Dew Point: 48 F (9 C)
Relative Humidity: 93%
Pressure (altimeter): 30.56 in. Hg (1035 hPa)
ob: EGJB 242350Z 34004KT CAVOK 10/09 Q1035
cycle: 0
Jersey Airport, United Kingdom (EGJJ) 49-13N 002-12W 0M
May 24, 2020 - 07:50 PM EDT / 2020.05.24 2350 UTC
Wind: from the N (360 degrees) at 7 MPH (6 KT):0
Visibility: greater than 7 mile(s):0
Temperature: 51 F (11 C)
Dew Point: 50 F (10 C)
Relative Humidity: 93%
Pressure (altimeter): 30.53 in. Hg (1034 hPa)
ob: EGJJ 242350Z AUTO 36006KT 9999 NCD 11/10 Q1034
cycle: 0
London / Gatwick Airport, United Kingdom (EGKK) 51-09N 000-11W 0M
May 24, 2020 - 07:50 PM EDT / 2020.05.24 2350 UTC
Wind: Variable at 1 MPH (1 KT):0
Visibility: greater than 7 mile(s):0
Temperature: 55 F (13 C)
Dew Point: 48 F (9 C)
Relative Humidity: 76%
Pressure (altimeter): 30.53 in. Hg (1034 hPa)
ob: EGKK 242350Z VRB01KT CAVOK 13/09 Q1034
cycle: 0
London / Heathrow Airport, United Kingdom (EGLL) 51-29N 000-27W 0M
May 24, 2020 - 07:50 PM EDT / 2020.05.24 2350 UTC
Wind: from the WNW (290 degrees) at 5 MPH (4 KT):0
Visibility: greater than 7 mile(s):0
Temperature: 57 F (14 C)
Dew Point: 48 F (9 C)
Relative Humidity: 71%
Pressure (altimeter): 30.53 in. Hg (1034 hPa)
ob: EGLL 242350Z AUTO 29004KT 9999 NCD 14/09 Q1034
cycle: 0
Southend-On-Sea , United Kingdom (EGMC) 51-34N 000-42E
May 24, 2020 - 07:20 PM EDT / 2020.05.24 2320 UTC
Wind: from the WNW (290 degrees) at 1 MPH (1 KT):0
Visibility: greater than 7 mile(s):0
Temperature: 50 F (10 C)
Dew Point: 46 F (8 C)
Relative Humidity: 87%
Pressure (altimeter): 30.50 in. Hg (1033 hPa)
ob: EGMC 242320Z 29001KT CAVOK 10/08 Q1033
cycle: 23
Lydd Airport , United Kingdom (EGMD) 50-57N 000-56E
May 24, 2020 - 07:50 PM EDT / 2020.05.24 2350 UTC
Wind: from the NNE (020 degrees) at 3 MPH (3 KT):0
Visibility: greater than 7 mile(s):0
Temperature: 50 F (10 C)
Dew Point: 50 F (10 C)
Relative Humidity: 100%
Pressure (altimeter): 30.50 in. Hg (1033 hPa)
ob: EGMD 242350Z AUTO 02003KT 9999 NCD 10/10 Q1033
cycle: 0
Glasgow Airport, United Kingdom (EGPF) 55-52N 004-26W 0M
May 24, 2020 - 07:50 PM EDT / 2020.05.24 2350 UTC
Wind: from the ENE (060 degrees) at 2 MPH (2 KT):0
Visibility: greater than 7 mile(s):0
Temperature: 44 F (7 C)
Dew Point: 42 F (6 C)
Relative Humidity: 93%
Pressure (altimeter): 30.45 in. Hg (1031 hPa)
ob: EGPF 242350Z AUTO 06002KT 9999 NCD 07/06 Q1031
cycle: 0
Stansted Airport, United Kingdom (EGSS) 51-53N 000-14E 0M
May 24, 2020 - 07:50 PM EDT / 2020.05.24 2350 UTC
Wind: from the NNW (340 degrees) at 2 MPH (2 KT):0
Visibility: greater than 7 mile(s):0
Temperature: 48 F (9 C)
Dew Point: 46 F (8 C)
Relative Humidity: 93%
Pressure (altimeter): 30.50 in. Hg (1033 hPa)
ob: EGSS 242350Z AUTO 34002KT 9999 NCD 09/08 Q1033
cycle: 0
Brize Norton, United Kingdom (EGVN) 51-45N 001-35W 0M
May 24, 2020 - 07:50 PM EDT / 2020.05.24 2350 UTC
Wind: from the WSW (250 degrees) at 5 MPH (4 KT):0
Visibility: greater than 7 mile(s):0
Temperature: 51 F (11 C)
Dew Point: 48 F (9 C)
Relative Humidity: 87%
Pressure (altimeter): 30.53 in. Hg (1034 hPa)
ob: EGVN 242350Z 25004KT CAVOK 11/09 Q1034 NOSIG RMK BLU BLU
cycle: 0



The data is logged at two minute intervals, but there is data recorded every minute. On the graph, the Blue line represents the average windspeed, the Red line is the maximum gust for that interval, and the Green line is what the wind has dropped off to in the same interval. Fuschia is the Barometer, and the dew point and Blue is humidity.

Use the RELOAD facility on your browser to retrieve the latest data.

Click here for a daily update of the averages/extremes to date for the month

Check *Live* Weather

Created by "Weather Display" software version 10.37S at this start time/date 21:51:42 24/05/2020